Agua de Oro, Argentina
Current Conditions -  °F | °C
As of 12:00 AM on Tuesday 21 Oct 2014 (Local Time) from SACO Reporting Station
Clear Clear  
Wind Chill: 16°   Ceiling: Unl
Heat Index: 16°   Visibility: 6mi
Dew Point: 10°   Wind: 7mph
Humidity: 68%   Direction: 340°NNW
Pressure: 30.15"   Gusts: NA
Location:  31.07°S, 64.3°W
Report Text: SACO 210300Z 34006KT CAVOK 16/10 Q1021
Loading
Personal Weather Stations






























Interactive Weather Map
Tropical Storm Tracking
New forecast layout! Learn more

10-Day Weather Forecast

Advertisements
Track Severe Weather on mobile